Aviation Digital Data Service (ADDS)

Output produced by METARs form (0307 UTC 22 October 2014)
found at http://aviationweather.gov/adds/metars/
 
KSSI 212329Z 2200/2224 VRB02KT P6SM SKC 
     FM221200 36010KT P6SM SKC